Time;durP1;ratioP1;P1;durP2;ratioP2;P2;SDS_P1;SDS_P2;PMS_P1;PMS_P2;Temp;Humidity;BMP_temperature;BMP_pressure;BME280_temperature;BME280_humidity;BME280_pressure;Samples;Min_cycle;Max_cycle;Signal;HPM_P1;HPM_P2
2023/05/24 00:03:23;;;;;;;7.20;4.47;;;;;;;13.27;46.93;100147.91;10409887;28;20251;-35
2023/05/24 00:08:25;;;;;;;5.83;4.60;;;;;;;12.74;48.53;100107.94;10396337;28;20259;-35
2023/05/24 00:13:27;;;;;;;10.73;4.67;;;;;;;14.38;46.86;100179.53;10440298;28;20650;-35
2023/05/24 00:18:30;;;;;;;6.70;4.43;;;;;;;12.91;48.01;100134.56;10444292;28;20219;-35
2023/05/24 00:23:31;;;;;;;7.23;4.30;;;;;;;14.46;45.99;100175.84;10436753;28;20231;-35
2023/05/24 00:28:34;;;;;;;6.33;4.27;;;;;;;14.71;45.58;100175.31;10441874;28;20244;-35
2023/05/24 00:33:36;;;;;;;8.20;4.30;;;;;;;14.42;45.69;100187.22;10437716;28;20678;-36
2023/05/24 00:38:37;;;;;;;9.53;4.33;;;;;;;13.74;46.74;100180.56;10442320;28;20285;-34
2023/05/24 00:43:42;;;;;;;8.43;3.90;;;;;;;13.13;46.93;100121.09;10442883;28;20319;-35
2023/05/24 00:48:44;;;;;;;7.20;4.17;;;;;;;13.81;46.38;100172.56;10437349;28;20212;-35
2023/05/24 00:53:47;;;;;;;9.60;4.67;;;;;;;13.86;46.87;100164.72;10439912;28;20702;-35
2023/05/24 00:58:53;;;;;;;8.00;4.23;;;;;;;14.17;45.44;100169.72;10440366;28;20326;-35
2023/05/24 01:03:56;;;;;;;9.47;4.70;;;;;;;14.91;45.06;100161.91;10439636;28;20244;-35
2023/05/24 01:09:44;;;;;;;9.73;4.57;;;;;;;14.40;45.36;100173.94;10440493;28;20293;-35
2023/05/24 01:15:03;;;;;;;8.07;4.10;;;;;;;13.26;46.45;100162.38;10429725;28;20224;-35
2023/05/24 01:20:12;;;;;;;10.33;4.17;;;;;;;13.65;46.07;100171.81;10439487;28;20231;-35
2023/05/24 01:25:47;;;;;;;7.80;4.27;;;;;;;14.66;44.90;100154.38;10421468;28;20236;-35
2023/05/24 01:30:49;;;;;;;7.63;4.63;;;;;;;13.40;46.64;100163.34;10439041;28;20248;-35
2023/05/24 01:35:51;;;;;;;8.67;4.27;;;;;;;14.07;46.02;100161.16;10436331;28;20240;-35
2023/05/24 01:41:10;;;;;;;8.83;4.80;;;;;;;14.58;45.25;100159.94;10435836;28;20305;-35
2023/05/24 01:46:14;;;;;;;8.17;4.70;;;;;;;12.32;47.71;100106.81;10436857;28;20250;-35
2023/05/24 01:51:21;;;;;;;7.87;4.30;;;;;;;14.12;45.59;100166.78;10438264;28;20318;-35
2023/05/24 01:56:26;;;;;;;7.33;4.10;;;;;;;11.73;48.74;100104.19;10438252;28;20735;-35
2023/05/24 02:01:30;;;;;;;10.30;4.30;;;;;;;12.48;46.98;100143.38;10437587;28;20371;-35
2023/05/24 02:06:32;;;;;;;8.33;4.80;;;;;;;13.01;47.00;100188.78;10434172;28;20224;-35
2023/05/24 02:11:34;;;;;;;6.67;4.07;;;;;;;11.69;49.06;100127.84;10436215;28;20228;-35
2023/05/24 02:16:41;;;;;;;11.10;4.20;;;;;;;12.70;47.47;100191.75;10439783;28;20712;-35
2023/05/24 02:21:43;;;;;;;11.77;4.90;;;;;;;12.18;47.44;100172.91;10434239;28;20261;-35
2023/05/24 02:26:45;;;;;;;8.73;4.03;;;;;;;14.00;45.03;100192.53;10435291;28;20705;-35
2023/05/24 02:31:49;;;;;;;8.33;4.13;;;;;;;11.85;47.45;100159.03;10437490;28;20235;-36
2023/05/24 02:36:53;;;;;;;9.10;4.07;;;;;;;12.02;47.25;100183.81;10430329;28;20318;-35
2023/05/24 02:41:54;;;;;;;8.87;4.03;;;;;;;12.32;46.80;100192.69;10438772;28;20234;-36
2023/05/24 02:46:56;;;;;;;9.07;4.17;;;;;;;11.62;47.64;100172.44;10437004;28;20267;-35
2023/05/24 02:51:58;;;;;;;10.47;3.90;;;;;;;12.10;47.16;100209.72;10433638;28;20227;-35
2023/05/24 02:57:00;;;;;;;10.03;4.40;;;;;;;13.29;45.54;100204.19;10435086;28;20232;-35
2023/05/24 03:02:02;;;;;;;9.50;4.20;;;;;;;11.57;47.24;100178.34;10435244;28;20282;-36
2023/05/24 03:07:04;;;;;;;7.83;3.83;;;;;;;12.31;46.49;100220.53;10431666;28;20618;-35
2023/05/24 03:12:06;;;;;;;9.10;3.97;;;;;;;12.62;45.43;100210.63;10433003;28;20648;-36
2023/05/24 03:17:08;;;;;;;13.17;4.40;;;;;;;11.90;46.77;100190.66;10416458;28;20233;-34
2023/05/24 03:22:10;;;;;;;8.87;3.80;;;;;;;12.02;47.20;100205.28;10433071;28;20231;-34
2023/05/24 03:27:12;;;;;;;7.33;4.33;;;;;;;12.44;46.40;100206.47;10432667;28;20705;-34
2023/05/24 03:32:13;;;;;;;6.20;3.87;;;;;;;11.45;47.41;100177.13;10437260;28;20815;-34
2023/05/24 03:37:15;;;;;;;5.87;3.70;;;;;;;12.27;46.60;100207.69;10432342;28;20708;-34
2023/05/24 03:42:17;;;;;;;10.80;4.23;;;;;;;12.51;45.95;100201.22;10435102;28;20311;-34
2023/05/24 03:47:18;;;;;;;7.67;4.57;;;;;;;12.99;45.63;100208.78;10441556;28;20688;-34
2023/05/24 03:52:21;;;;;;;8.20;3.67;;;;;;;12.54;46.11;100216.97;10441759;28;20281;-34
2023/05/24 03:57:23;;;;;;;10.53;3.77;;;;;;;11.01;48.41;100153.69;10439819;28;20286;-34
2023/05/24 04:02:25;;;;;;;7.03;4.33;;;;;;;12.43;46.12;100206.66;10442819;28;20327;-34
2023/05/24 04:07:27;;;;;;;8.70;4.10;;;;;;;10.68;49.18;100145.81;10442284;28;20246;-34
2023/05/24 04:12:30;;;;;;;8.17;4.57;;;;;;;12.68;46.12;100210.72;10419346;28;20228;-34
2023/05/24 04:17:33;;;;;;;10.73;3.93;;;;;;;12.88;45.97;100212.81;10441141;28;20256;-34
2023/05/24 04:22:35;;;;;;;9.77;3.70;;;;;;;12.64;46.26;100232.78;10438758;28;20322;-34
2023/05/24 04:27:37;;;;;;;7.00;3.83;;;;;;;11.42;47.43;100205.13;10438823;28;20227;-34
2023/05/24 04:32:39;;;;;;;9.30;4.37;;;;;;;11.33;48.64;100203.50;10439120;28;20257;-34
2023/05/24 04:37:41;;;;;;;11.63;4.50;;;;;;;13.14;46.33;100211.44;10438930;28;20286;-34
2023/05/24 04:42:43;;;;;;;10.37;4.20;;;;;;;11.43;48.27;100219.34;10404071;28;20240;-34
2023/05/24 04:47:44;;;;;;;12.40;4.40;;;;;;;11.63;47.62;100211.69;10403028;28;20232;-34
2023/05/24 04:52:46;;;;;;;13.93;4.87;;;;;;;11.75;48.20;100220.94;10392691;28;20229;-34
2023/05/24 04:57:48;;;;;;;12.53;5.50;;;;;;;10.75;48.41;100164.72;10396295;28;20311;-34
2023/05/24 05:02:50;;;;;;;8.10;4.40;;;;;;;10.54;49.86;100176.84;10389607;28;20587;-34
2023/05/24 05:07:52;;;;;;;8.53;4.37;;;;;;;10.85;48.72;100200.16;10396978;28;20760;-34
2023/05/24 05:12:53;;;;;;;10.43;4.27;;;;;;;10.66;49.12;100198.72;10393420;28;20286;-34
2023/05/24 05:17:56;;;;;;;11.40;4.27;;;;;;;11.09;48.21;100235.84;10397420;28;20227;-34
2023/05/24 05:22:57;;;;;;;10.40;4.73;;;;;;;11.88;47.43;100254.34;10438555;28;20307;-34
2023/05/24 05:27:59;;;;;;;9.97;4.43;;;;;;;12.65;46.65;100247.84;10396576;28;20229;-34
2023/05/24 05:33:01;;;;;;;10.13;3.80;;;;;;;11.37;47.49;100249.53;10392939;28;20331;-34
2023/05/24 05:38:03;;;;;;;11.77;4.73;;;;;;;12.29;46.46;100262.84;10403145;28;20228;-34
2023/05/24 05:43:07;;;;;;;8.90;3.87;;;;;;;13.94;44.67;100250.66;10435342;28;20319;-34
2023/05/24 05:48:08;;;;;;;6.50;3.43;;;;;;;12.45;45.97;100287.81;10390820;28;20228;-34
2023/05/24 05:53:11;;;;;;;9.33;4.03;;;;;;;11.78;47.25;100270.72;10396736;28;20225;-34
2023/05/24 05:58:12;;;;;;;9.47;3.70;;;;;;;12.09;47.00;100270.56;10438039;28;20278;-34
2023/05/24 06:03:14;;;;;;;8.67;3.63;;;;;;;11.58;47.63;100267.66;10430785;28;20272;-34
2023/05/24 06:08:16;;;;;;;7.73;4.53;;;;;;;10.84;48.52;100227.94;10391673;28;20267;-34
2023/05/24 06:13:18;;;;;;;9.30;4.33;;;;;;;9.90;49.76;100169.72;10400859;28;20582;-34
2023/05/24 06:18:20;;;;;;;9.03;4.13;;;;;;;11.12;48.41;100244.34;10392393;28;20258;-34
2023/05/24 06:23:22;;;;;;;11.07;4.70;;;;;;;10.88;48.88;100237.28;10393493;28;20231;-34
2023/05/24 06:28:23;;;;;;;7.90;4.13;;;;;;;11.31;47.37;100235.00;10391498;28;20317;-34
2023/05/24 06:33:26;;;;;;;9.93;4.43;;;;;;;11.32;47.88;100254.59;10433623;28;20238;-34
2023/05/24 06:38:28;;;;;;;9.47;4.13;;;;;;;12.17;46.36;100270.50;10393769;28;20223;-34
2023/05/24 06:43:30;;;;;;;12.40;4.03;;;;;;;11.45;46.90;100289.66;10395344;28;20232;-34
2023/05/24 06:48:31;;;;;;;10.10;4.03;;;;;;;11.13;47.25;100280.00;10391693;28;20255;-34
2023/05/24 06:53:33;;;;;;;11.77;4.53;;;;;;;10.80;46.82;100262.25;10428272;28;20694;-34
2023/05/24 06:58:35;;;;;;;8.93;3.80;;;;;;;11.94;45.85;100318.81;10439669;28;20323;-34
2023/05/24 07:03:37;;;;;;;10.70;3.63;;;;;;;11.69;45.89;100311.97;10424490;28;20235;-34
2023/05/24 07:08:40;;;;;;;9.20;3.77;;;;;;;12.29;46.05;100345.19;10426570;28;20706;-34
2023/05/24 07:13:42;;;;;;;7.67;3.50;;;;;;;12.76;45.08;100352.13;10419726;28;20368;-34
2023/05/24 07:18:44;;;;;;;8.07;3.63;;;;;;;12.03;45.73;100357.16;10429443;28;20200;-34
2023/05/24 07:23:46;;;;;;;8.83;4.03;;;;;;;13.70;44.32;100334.44;10438818;28;20651;-34
2023/05/24 07:28:47;;;;;;;10.80;3.73;;;;;;;12.31;45.54;100378.88;10441264;28;20327;-34
2023/05/24 07:33:49;;;;;;;9.40;3.80;;;;;;;11.76;46.58;100363.88;10437887;28;20331;-34
2023/05/24 07:38:51;;;;;;;10.97;4.10;;;;;;;11.12;46.72;100340.78;10445092;28;20234;-34
2023/05/24 07:43:54;;;;;;;9.23;4.20;;;;;;;11.80;46.02;100360.66;10437386;28;20350;-34
2023/05/24 07:48:56;;;;;;;10.50;3.50;;;;;;;11.84;46.36;100368.34;10416586;28;20611;-34
2023/05/24 07:53:57;;;;;;;5.77;3.30;;;;;;;12.80;44.41;100372.19;10434975;28;20315;-34
2023/05/24 07:59:03;;;;;;;13.00;4.50;;;;;;;11.95;44.77;100384.03;10437967;28;20315;-34
2023/05/24 08:04:07;;;;;;;8.53;3.93;;;;;;;12.52;44.46;100398.84;10436016;28;20264;-34
2023/05/24 08:09:09;;;;;;;10.80;3.70;;;;;;;12.60;44.50;100396.06;10438947;28;20236;-34
2023/05/24 08:14:11;;;;;;;17.03;3.83;;;;;;;13.25;42.82;100393.69;10437453;28;20658;-34
2023/05/24 08:19:13;;;;;;;12.90;3.80;;;;;;;12.39;43.50;100407.50;10439532;28;20236;-34
2023/05/24 08:24:14;;;;;;;9.67;3.60;;;;;;;11.53;43.10;100375.38;10438453;28;20228;-34
2023/05/24 08:29:16;;;;;;;9.57;3.57;;;;;;;11.63;43.31;100392.09;10434589;28;20679;-34
2023/05/24 08:34:18;;;;;;;8.30;3.50;;;;;;;11.66;43.46;100395.44;10432673;28;20232;-34
2023/05/24 08:39:20;;;;;;;7.93;3.60;;;;;;;12.01;43.55;100404.75;10435336;28;20659;-34
2023/05/24 08:44:22;;;;;;;7.93;3.30;;;;;;;12.43;42.03;100413.31;10433012;28;20250;-34
2023/05/24 08:49:24;;;;;;;11.03;4.00;;;;;;;13.16;41.29;100416.28;10430541;28;20236;-35
2023/05/24 08:54:26;;;;;;;8.43;3.20;;;;;;;13.72;40.92;100411.22;10422138;28;20227;-36
2023/05/24 08:59:28;;;;;;;8.27;3.27;;;;;;;13.91;40.28;100423.22;10436743;28;20231;-36
2023/05/24 09:04:30;;;;;;;7.53;3.00;;;;;;;13.80;40.95;100445.22;10424598;28;20623;-36
2023/05/24 09:09:33;;;;;;;9.13;3.43;;;;;;;12.19;41.98;100394.56;10437903;28;20228;-36
2023/05/24 09:14:35;;;;;;;7.90;3.20;;;;;;;13.66;40.75;100414.66;10422382;28;20306;-36
2023/05/24 09:19:38;;;;;;;11.00;3.70;;;;;;;13.79;40.92;100400.56;10427974;28;20238;-36
2023/05/24 09:24:46;;;;;;;12.10;4.60;;;;;;;14.05;40.65;100391.91;10427777;28;20231;-36
2023/05/24 09:29:50;;;;;;;8.17;3.37;;;;;;;14.13;40.48;100423.25;10415073;28;20776;-36
2023/05/24 09:34:52;;;;;;;7.93;3.77;;;;;;;15.04;39.91;100407.19;10432326;28;20266;-37
2023/05/24 09:39:56;;;;;;;9.17;3.63;;;;;;;14.60;38.76;100405.66;10426183;28;20236;-36
2023/05/24 09:45:05;;;;;;;7.57;3.60;;;;;;;16.00;38.78;100378.50;10427064;28;20634;-36
2023/05/24 09:50:15;;;;;;;6.83;2.97;;;;;;;16.53;38.40;100361.47;10431973;28;20305;-36
2023/05/24 09:55:19;;;;;;;8.87;3.93;;;;;;;16.39;36.90;100368.78;10422339;28;20242;-36
2023/05/24 10:00:22;;;;;;;6.90;3.10;;;;;;;16.71;36.60;100352.72;10427938;28;20228;-36
2023/05/24 10:05:24;;;;;;;6.67;2.87;;;;;;;15.93;36.69;100391.16;10425460;28;20240;-36
2023/05/24 10:10:28;;;;;;;7.37;2.97;;;;;;;14.88;36.64;100412.91;10429780;28;20254;-36
2023/05/24 10:15:30;;;;;;;4.90;2.93;;;;;;;14.04;36.93;100355.25;10410620;28;20748;-36
2023/05/24 10:20:32;;;;;;;7.20;2.67;;;;;;;14.71;37.32;100372.78;10434902;28;20767;-36
2023/05/24 10:25:37;;;;;;;8.33;3.90;;;;;;;16.35;36.59;100322.44;10429526;28;20585;-36
2023/05/24 10:30:47;;;;;;;7.00;2.70;;;;;;;15.83;35.90;100365.38;10425282;28;20309;-37
2023/05/24 10:35:50;;;;;;;7.10;3.30;;;;;;;15.03;35.00;100350.78;10428477;28;20322;-36
2023/05/24 10:40:51;;;;;;;7.60;2.90;;;;;;;15.22;34.98;100347.38;10425005;28;20232;-36
2023/05/24 10:45:55;;;;;;;7.40;2.90;;;;;;;15.51;35.24;100372.34;10418175;28;20224;-34
2023/05/24 10:51:00;;;;;;;6.67;2.90;;;;;;;17.35;34.04;100278.03;10420043;28;20262;-36
2023/05/24 10:56:05;;;;;;;8.53;2.30;;;;;;;15.19;34.45;100341.53;10422606;28;20270;-35
2023/05/24 11:06:44;;;;;;;4.37;2.00;;;;;;;16.26;36.43;100304.78;10460033;27;20810;-69
2023/05/24 11:11:47;;;;;;;6.70;2.80;;;;;;;14.29;36.05;100326.09;10400287;28;20327;-68
2023/05/24 11:16:50;;;;;;;7.90;2.70;;;;;;;15.64;36.98;100282.53;10431469;28;20235;-68
2023/05/24 11:21:57;;;;;;;8.33;3.70;;;;;;;15.14;36.40;100310.63;10433104;28;20614;-68
2023/05/24 11:27:01;;;;;;;6.93;2.67;;;;;;;15.51;36.72;100294.13;10427388;28;20235;-68
2023/05/24 11:32:03;;;;;;;9.47;3.20;;;;;;;14.47;35.68;100306.72;10429896;28;20239;-71
2023/05/24 11:37:06;;;;;;;6.70;2.93;;;;;;;14.60;34.47;100314.06;10426253;28;20235;-67
2023/05/24 11:42:08;;;;;;;7.67;3.20;;;;;;;15.13;35.36;100319.75;10431081;28;20232;-66
2023/05/24 11:47:12;;;;;;;6.20;2.77;;;;;;;14.36;35.09;100304.63;10422438;28;20614;-66
2023/05/24 11:52:14;;;;;;;4.97;2.60;;;;;;;15.06;35.07;100312.66;10428863;28;20235;-70
2023/05/24 11:57:20;;;;;;;8.10;2.90;;;;;;;14.11;36.61;100270.06;10433023;28;20310;-70
2023/05/24 12:02:22;;;;;;;5.97;2.83;;;;;;;14.63;34.97;100259.81;10431385;28;20688;-68
2023/05/24 12:07:24;;;;;;;7.60;3.30;;;;;;;14.03;36.58;100238.72;10430894;28;20242;-67
2023/05/24 12:12:25;;;;;;;6.73;2.83;;;;;;;14.92;35.33;100284.84;10430153;28;20229;-67
2023/05/24 12:17:38;;;;;;;7.43;3.47;;;;;;;16.96;33.84;100234.78;10405846;28;20723;-68
2023/05/24 12:22:49;;;;;;;10.40;2.70;;;;;;;15.14;33.22;100254.00;10402757;28;20324;-67
2023/05/24 12:27:55;;;;;;;4.80;2.30;;;;;;;15.69;30.13;100289.00;10403468;28;20236;-67
2023/05/24 12:32:57;;;;;;;7.53;2.47;;;;;;;16.34;32.16;100298.34;10402006;28;20736;-68
2023/05/24 12:37:59;;;;;;;7.27;3.07;;;;;;;14.50;31.64;100252.50;10405508;28;20228;-68
2023/05/24 12:43:03;;;;;;;7.83;2.87;;;;;;;15.91;32.52;100274.47;10399251;28;20296;-68
2023/05/24 12:48:05;;;;;;;5.90;2.70;;;;;;;14.46;31.79;100223.47;10398839;28;20228;-68
2023/05/24 12:53:07;;;;;;;5.40;2.37;;;;;;;16.66;32.45;100223.66;10393316;28;20795;-68
2023/05/24 12:58:10;;;;;;;4.43;2.67;;;;;;;15.39;33.39;100252.63;10400072;28;20235;-68
2023/05/24 13:03:11;;;;;;;4.97;2.50;;;;;;;15.71;32.33;100229.44;10402080;28;20282;-68
2023/05/24 13:08:15;;;;;;;7.83;2.70;;;;;;;16.29;32.87;100225.25;10425554;28;20337;-68
2023/05/24 13:13:16;;;;;;;7.60;3.00;;;;;;;16.75;31.64;100226.94;10397298;28;20716;-68
2023/05/24 13:18:18;;;;;;;6.20;3.00;;;;;;;15.11;31.36;100188.91;10400426;28;20303;-68
2023/05/24 13:23:20;;;;;;;5.83;2.87;;;;;;;16.12;30.55;100217.56;10403716;28;20243;-67
2023/05/24 13:28:22;;;;;;;4.57;2.20;;;;;;;17.21;31.41;100198.00;10400884;28;20271;-67
2023/05/24 13:33:24;;;;;;;5.47;2.60;;;;;;;16.64;30.90;100204.13;10392507;28;20235;-67
2023/05/24 13:38:27;;;;;;;8.53;3.90;;;;;;;15.44;32.54;100170.06;10403351;28;20270;-67
2023/05/24 13:43:29;;;;;;;6.00;2.67;;;;;;;16.71;33.80;100177.09;10400100;28;20224;-67
2023/05/24 13:48:31;;;;;;;6.40;2.70;;;;;;;16.34;32.11;100185.75;10391071;28;20821;-67
2023/05/24 13:53:33;;;;;;;7.17;2.70;;;;;;;16.25;32.03;100185.13;10397483;28;20303;-67
2023/05/24 13:58:35;;;;;;;5.03;2.23;;;;;;;16.44;32.12;100164.50;10392901;28;20315;-69
2023/05/24 14:03:39;;;;;;;5.40;2.30;;;;;;;15.97;32.02;100165.69;10402874;28;20256;-67
2023/05/24 14:08:41;;;;;;;10.67;2.50;;;;;;;16.75;32.85;100162.09;10399297;28;20250;-68
2023/05/24 14:13:43;;;;;;;7.50;2.43;;;;;;;16.98;32.17;100148.06;10398816;28;20325;-67
2023/05/24 14:18:49;;;;;;;5.10;2.57;;;;;;;17.30;33.11;100137.22;10400786;28;20252;-67
2023/05/24 14:23:50;;;;;;;9.90;3.10;;;;;;;16.99;33.17;100142.44;10392982;28;20293;-68
2023/05/24 14:28:52;;;;;;;7.13;3.07;;;;;;;16.50;33.29;100154.75;10406396;28;20298;-67
2023/05/24 14:33:57;;;;;;;5.07;2.83;;;;;;;16.06;32.77;100140.97;10400409;28;20256;-67
2023/05/24 14:38:59;;;;;;;5.03;2.50;;;;;;;16.90;32.79;100116.66;10402182;28;22164;-67
2023/05/24 14:44:01;;;;;;;5.73;2.83;;;;;;;16.67;32.67;100119.09;10395859;28;20623;-67
2023/05/24 14:49:03;;;;;;;4.95;2.40;;;;;;;16.48;31.90;100137.91;10394802;28;20248;-67
2023/05/24 14:54:05;;;;;;;5.27;2.43;;;;;;;15.48;32.53;100059.91;10396178;28;20240;-67
2023/05/24 14:59:07;;;;;;;5.90;2.60;;;;;;;15.35;31.60;100086.91;10400905;28;20282;-68
2023/05/24 15:04:08;;;;;;;5.97;2.37;;;;;;;16.78;30.63;100130.06;10405026;28;20232;-66
2023/05/24 15:09:10;;;;;;;5.37;2.57;;;;;;;16.22;32.45;100087.53;10399280;28;20228;-66
2023/05/24 15:14:12;;;;;;;4.63;2.30;;;;;;;16.61;32.79;100137.84;10399787;28;20337;-66
2023/05/24 15:19:14;;;;;;;5.47;2.60;;;;;;;16.98;31.28;100102.09;10398798;28;20305;-66
2023/05/24 15:24:16;;;;;;;5.00;2.53;;;;;;;16.58;32.30;100100.47;10402075;28;20693;-65
2023/05/24 15:29:18;;;;;;;6.17;2.80;;;;;;;17.65;32.60;100052.84;10400895;28;20240;-65
2023/05/24 15:34:19;;;;;;;7.47;3.10;;;;;;;16.89;32.48;100084.47;10403509;28;20232;-65
2023/05/24 15:39:24;;;;;;;6.77;3.23;;;;;;;17.62;32.26;100053.25;10399678;28;20340;-65
2023/05/24 15:44:26;;;;;;;5.47;2.70;;;;;;;16.40;32.43;100100.38;10399358;28;20237;-65
2023/05/24 15:49:27;;;;;;;7.70;2.67;;;;;;;16.84;31.83;100077.03;10405073;28;20783;-65
2023/05/24 15:54:29;;;;;;;6.83;2.57;;;;;;;16.29;32.98;100096.44;10412156;28;20260;-65
2023/05/24 15:59:34;;;;;;;5.13;2.77;;;;;;;18.11;32.03;100048.75;10404698;28;20237;-66
2023/05/24 16:04:35;;;;;;;8.40;2.80;;;;;;;14.74;33.94;99927.91;10404123;28;20236;-65
2023/05/24 16:09:37;;;;;;;6.53;2.90;;;;;;;15.56;34.05;100067.00;10403751;28;20232;-64
2023/05/24 16:14:39;;;;;;;7.37;2.80;;;;;;;15.95;33.89;100078.72;10404528;28;20267;-65
2023/05/24 16:19:41;;;;;;;4.77;3.00;;;;;;;16.06;33.11;100075.31;10408860;28;20261;-65
2023/05/24 16:24:43;;;;;;;7.87;2.60;;;;;;;16.87;32.95;100067.63;10401800;28;20341;-65
2023/05/24 16:29:45;;;;;;;4.93;2.70;;;;;;;17.21;32.26;100069.06;10402017;28;20316;-68
2023/05/24 16:34:47;;;;;;;4.87;2.80;;;;;;;16.55;32.93;100078.44;10402137;28;20237;-63
2023/05/24 16:39:57;;;;;;;6.53;3.17;;;;;;;16.79;32.79;100072.25;10402943;28;20237;-65
2023/05/24 16:44:59;;;;;;;8.87;3.10;;;;;;;15.95;35.19;100040.94;10405493;28;20241;-65
2023/05/24 16:50:01;;;;;;;7.33;3.10;;;;;;;14.27;35.77;99970.13;10400085;28;20248;-67
2023/05/24 16:55:03;;;;;;;7.00;2.80;;;;;;;15.91;34.80;100034.28;10399958;28;20236;-65
2023/05/24 17:00:05;;;;;;;6.77;3.10;;;;;;;14.47;36.93;99999.78;10395993;28;20286;-67
2023/05/24 17:05:07;;;;;;;6.43;3.07;;;;;;;15.49;35.82;100016.56;10399733;28;20300;-66
2023/05/24 17:10:09;;;;;;;5.33;3.07;;;;;;;14.67;37.00;100010.59;10399791;28;20671;-67
2023/05/24 17:15:11;;;;;;;8.77;3.27;;;;;;;14.11;37.21;99984.00;10402517;28;20255;-67
2023/05/24 17:20:13;;;;;;;7.50;3.47;;;;;;;14.37;37.26;99999.38;10401889;28;20224;-66
2023/05/24 17:25:15;;;;;;;5.60;3.50;;;;;;;13.45;38.25;99955.78;10396382;28;20240;-65
2023/05/24 17:30:18;;;;;;;8.13;3.60;;;;;;;15.25;36.83;99998.34;10403690;28;20660;-66
2023/05/24 17:35:20;;;;;;;7.90;3.47;;;;;;;14.21;37.81;99996.03;10401634;28;20659;-65
2023/05/24 17:40:22;;;;;;;10.30;3.60;;;;;;;14.72;37.95;99991.13;10402625;28;20231;-65
2023/05/24 17:45:23;;;;;;;7.10;3.60;;;;;;;14.34;38.37;100011.38;10396911;28;20237;-65
2023/05/24 17:50:25;;;;;;;7.43;3.50;;;;;;;14.46;38.39;99995.47;10402658;28;20252;-65
2023/05/24 17:55:27;;;;;;;8.00;3.50;;;;;;;14.51;38.08;100021.75;10401207;28;20236;-65
2023/05/24 18:00:28;;;;;;;7.87;3.50;;;;;;;14.38;38.81;100009.94;10402870;28;20302;-64
2023/05/24 18:05:30;;;;;;;9.50;3.90;;;;;;;13.93;38.97;100004.19;10406378;28;20233;-64
2023/05/24 18:10:32;;;;;;;9.83;3.57;;;;;;;13.48;39.45;99993.03;10398574;28;20283;-65
2023/05/24 18:15:34;;;;;;;11.90;3.67;;;;;;;14.88;38.28;100019.53;10394978;28;20245;-65
2023/05/24 18:20:36;;;;;;;7.17;3.10;;;;;;;14.29;38.09;100031.84;10400493;28;20251;-65
2023/05/24 18:25:37;;;;;;;8.10;3.90;;;;;;;13.81;39.40;100020.06;10399245;28;20224;-62
2023/05/24 18:30:41;;;;;;;6.27;3.07;;;;;;;13.97;39.43;100031.50;10400594;28;20233;-63
2023/05/24 18:35:43;;;;;;;6.30;3.30;;;;;;;14.43;38.54;100035.44;10399198;28;20286;-64
2023/05/24 18:40:45;;;;;;;6.90;3.20;;;;;;;13.97;39.02;100058.41;10401047;28;20320;-64
2023/05/24 18:45:47;;;;;;;10.53;3.80;;;;;;;13.40;39.36;100037.00;10401057;28;20777;-64
2023/05/24 18:50:49;;;;;;;10.70;3.73;;;;;;;15.07;38.03;100058.31;10398970;28;20232;-63
2023/05/24 18:55:51;;;;;;;9.73;3.90;;;;;;;14.08;38.61;100059.75;10398710;28;20233;-64
2023/05/24 19:00:53;;;;;;;10.37;3.87;;;;;;;13.33;39.67;100043.38;10398404;28;20313;-64
2023/05/24 19:05:55;;;;;;;6.53;3.20;;;;;;;14.51;38.12;100056.75;10396751;28;20330;-64
2023/05/24 19:10:56;;;;;;;8.47;3.30;;;;;;;14.83;38.45;100073.19;10398477;28;20675;-65
2023/05/24 19:16:00;;;;;;;8.73;3.67;;;;;;;13.48;39.47;100071.81;10398492;28;20229;-65
2023/05/24 19:21:02;;;;;;;8.30;3.23;;;;;;;12.85;40.07;100044.81;10399460;28;20613;-64
2023/05/24 19:26:03;;;;;;;6.87;3.17;;;;;;;14.37;38.95;100075.59;10401224;28;20236;-64
2023/05/24 19:31:06;;;;;;;7.20;2.87;;;;;;;14.47;39.06;100075.19;10408243;28;20310;-64
2023/05/24 19:36:07;;;;;;;8.77;3.13;;;;;;;13.49;39.26;100083.38;10404208;28;20232;-65
2023/05/24 19:41:11;;;;;;;10.23;3.47;;;;;;;14.91;37.88;100105.34;10402676;28;20595;-65
2023/05/24 19:46:13;;;;;;;6.30;3.27;;;;;;;14.08;39.03;100108.19;10409042;28;20232;-65
2023/05/24 19:51:15;;;;;;;7.23;3.57;;;;;;;13.25;39.32;100096.22;10403760;28;20260;-66
2023/05/24 19:56:18;;;;;;;7.93;3.47;;;;;;;13.44;39.28;100104.66;10409358;28;20307;-66
2023/05/24 20:01:20;;;;;;;12.03;3.43;;;;;;;13.29;39.44;100102.91;10405945;28;20225;-66
2023/05/24 20:06:21;;;;;;;8.27;3.27;;;;;;;13.67;39.15;100099.84;10407748;28;20237;-66
2023/05/24 20:11:23;;;;;;;8.33;3.30;;;;;;;12.65;40.03;100082.22;10406750;28;20236;-64
2023/05/24 20:16:26;;;;;;;7.03;3.47;;;;;;;13.37;38.82;100106.47;10412205;28;20655;-66
2023/05/24 20:21:27;;;;;;;8.97;3.63;;;;;;;13.39;39.14;100105.22;10405536;28;20314;-65
2023/05/24 20:26:31;;;;;;;9.43;3.90;;;;;;;14.66;38.89;100084.34;10405934;28;20239;-64
2023/05/24 20:31:33;;;;;;;8.03;3.73;;;;;;;13.54;39.44;100118.56;10403974;28;20274;-64
2023/05/24 20:36:35;;;;;;;6.77;3.50;;;;;;;13.29;39.36;100102.06;10403294;28;20263;-66
2023/05/24 20:41:37;;;;;;;10.10;3.60;;;;;;;14.08;38.75;100121.63;10405715;28;20282;-66
2023/05/24 20:46:40;;;;;;;7.13;3.37;;;;;;;13.77;40.00;100109.44;10404831;28;20319;-66
2023/05/24 20:51:41;;;;;;;5.73;3.93;;;;;;;12.77;39.94;100114.78;10406152;28;20236;-66
2023/05/24 20:56:43;;;;;;;6.63;3.40;;;;;;;12.31;40.79;100075.63;10405290;28;20236;-66
2023/05/24 21:01:45;;;;;;;7.00;3.40;;;;;;;12.44;40.67;100085.69;10402920;28;20251;-66
2023/05/24 21:06:46;;;;;;;6.37;2.90;;;;;;;12.21;41.37;100080.47;10403786;28;20243;-70
2023/05/24 21:11:48;;;;;;;7.50;3.73;;;;;;;11.28;42.79;100036.28;10400027;28;20678;-68
2023/05/24 21:16:50;;;;;;;10.77;3.30;;;;;;;12.36;41.41;100093.88;10402879;28;20282;-67
2023/05/24 21:21:51;;;;;;;7.47;3.17;;;;;;;11.81;42.72;100074.59;10400312;28;20613;-68
2023/05/24 21:26:53;;;;;;;8.60;3.67;;;;;;;11.87;42.02;100076.53;10403506;28;20241;-68
2023/05/24 21:31:55;;;;;;;6.37;3.40;;;;;;;11.91;41.83;100085.03;10405108;28;20245;-67
2023/05/24 21:36:57;;;;;;;9.03;3.57;;;;;;;11.16;42.78;100043.94;10404001;28;20684;-67
2023/05/24 21:41:59;;;;;;;7.23;3.27;;;;;;;12.01;42.20;100080.22;10406713;28;20311;-68
2023/05/24 21:47:00;;;;;;;8.07;4.23;;;;;;;12.18;42.06;100087.06;10404814;28;20228;-68
2023/05/24 21:52:02;;;;;;;10.53;4.33;;;;;;;12.33;42.05;100102.28;10403998;28;20327;-68
2023/05/24 21:57:05;;;;;;;11.83;3.93;;;;;;;12.36;42.27;100094.69;10402720;28;20232;-68
2023/05/24 22:02:08;;;;;;;10.70;3.53;;;;;;;11.85;42.69;100108.06;10402271;28;20244;-66
2023/05/24 22:07:09;;;;;;;6.87;3.50;;;;;;;12.62;42.06;100104.09;10402068;28;20735;-66
2023/05/24 22:12:11;;;;;;;9.50;3.83;;;;;;;12.47;41.71;100111.34;10398246;28;20232;-66
2023/05/24 22:17:13;;;;;;;8.30;3.47;;;;;;;12.02;42.30;100113.25;10401466;28;20256;-65
2023/05/24 22:22:18;;;;;;;7.60;3.77;;;;;;;11.91;42.65;100123.44;10404426;28;20783;-66
2023/05/24 22:27:20;;;;;;;10.73;3.87;;;;;;;12.34;42.07;100118.19;10404353;28;20232;-66
2023/05/24 22:32:22;;;;;;;7.97;3.40;;;;;;;12.41;42.16;100152.34;10394377;28;20240;-65
2023/05/24 22:37:24;;;;;;;9.33;3.30;;;;;;;12.76;41.85;100150.72;10400687;28;20220;-66
2023/05/24 22:42:25;;;;;;;7.17;3.80;;;;;;;11.99;42.52;100165.41;10402799;28;20761;-66
2023/05/24 22:47:27;;;;;;;9.07;4.10;;;;;;;12.99;41.64;100163.13;10401214;28;20326;-66
2023/05/24 22:52:32;;;;;;;10.73;4.13;;;;;;;12.27;42.85;100172.81;10399486;28;20723;-66
2023/05/24 22:57:34;;;;;;;8.03;3.70;;;;;;;12.37;42.70;100162.63;10398780;28;20237;-66
2023/05/24 23:02:35;;;;;;;9.13;3.50;;;;;;;11.78;42.94;100163.47;10395856;28;20248;-66
2023/05/24 23:07:38;;;;;;;9.53;3.67;;;;;;;12.48;43.27;100158.66;10398920;28;20243;-66
2023/05/24 23:12:43;;;;;;;5.63;3.37;;;;;;;10.91;44.45;100129.81;10399956;28;20248;-66
2023/05/24 23:17:45;;;;;;;9.53;3.47;;;;;;;10.99;44.50;100142.34;10391477;28;20264;-66